Asahi Maru No.16 — JD3024 — position and weather

sailwx.info

Track history (hours):
 
Tides and Currents Weather Stations Pressure Air Temp Water Temp Dewpoint Dewpoint Depression Visibility Wind Speed Wind Dir Waves Ship Positions

Asahi Maru No.16

Last reported at 2018-Feb-22 19:08 UTC. Time now 2018-Feb-22 23:02 UTC.
Position N 33°55' E 132°39'.

Length 75 m.

Type: Cargo ship. MMSI: 431001193.

Date/timePositionNaut miles runAvg speedWind from/ knotsBaromVisibWave heightAir tempDewpointWater temp
2018-Feb-22 19:08N 33°55' E 132°39'211.6
2018-Feb-22 19:00N 33°56' E 132°40'10610.4
2018-Feb-22 08:51N 34°32' E 134°41'711.1
2018-Feb-22 08:11N 34°34' E 134°50'210.7
2018-Feb-22 07:58N 34°35' E 134°52'510.2
2018-Feb-22 07:30N 34°37' E 134°57'5 9.8
2018-Feb-22 07:00N 34°36' E 135°03'611.7
2018-Feb-22 06:30N 34°38' E 135°10'2 4.0
2018-Feb-22 06:00N 34°40' E 135°12'0 0.5
2018-Feb-22 05:30N 34°40' E 135°11'0 0.8
2018-Feb-22 04:59N 34°39' E 135°11'0 0.0
2018-Feb-22 04:29N 34°39' E 135°11'0 0.0
2018-Feb-22 03:59N 34°39' E 135°11'0 0.0
2018-Feb-22 03:29N 34°39' E 135°11'0 0.0
2018-Feb-22 02:59N 34°39' E 135°11'0 0.0
2018-Feb-22 02:29N 34°39' E 135°11'0 0.0
2018-Feb-22 01:59N 34°39' E 135°11'0 0.0
2018-Feb-22 01:29N 34°39' E 135°11'0 0.0
2018-Feb-22 00:59N 34°39' E 135°11'0 0.0
2018-Feb-22 00:29N 34°39' E 135°11'0 0.0
2018-Feb-21 23:59N 34°39' E 135°11'0 0.0
2018-Feb-21 23:29N 34°39' E 135°11'0 0.1
2018-Feb-21 22:59N 34°39' E 135°11'2 4.0
2018-Feb-21 22:29N 34°38' E 135°10'0 0.1
2018-Feb-21 21:59N 34°38' E 135°09'0 0.1
2018-Feb-21 21:29N 34°38' E 135°10'0 0.0
2018-Feb-21 20:59N 34°38' E 135°10'0 0.0
2018-Feb-21 20:29N 34°38' E 135°10'0 0.0
2018-Feb-21 19:59N 34°38' E 135°10'0 0.0
2018-Feb-21 19:29N 34°38' E 135°10'0 0.0
2018-Feb-21 18:59N 34°38' E 135°10'0 0.0
2018-Feb-21 18:29N 34°38' E 135°10'0 0.0
2018-Feb-21 17:59N 34°38' E 135°10'0 0.0
2018-Feb-21 17:29N 34°38' E 135°10'0 0.0
2018-Feb-21 16:59N 34°38' E 135°10'0 0.0
2018-Feb-21 16:29N 34°38' E 135°10'0 0.0
2018-Feb-21 15:59N 34°38' E 135°10'0 0.0
2018-Feb-21 15:29N 34°38' E 135°10'0 0.0
2018-Feb-21 14:59N 34°38' E 135°10'0 0.0
2018-Feb-21 14:29N 34°38' E 135°10'0 0.0
2018-Feb-21 13:59N 34°38' E 135°10'0 0.1
2018-Feb-21 13:29N 34°38' E 135°09'0 0.1
2018-Feb-21 12:59N 34°38' E 135°10'0 0.0
2018-Feb-21 12:29N 34°38' E 135°10'0 0.0
2018-Feb-21 11:59N 34°38' E 135°10'0 0.0
2018-Feb-21 11:29N 34°38' E 135°10'0 0.0
2018-Feb-21 10:59N 34°38' E 135°10'0 0.0
2018-Feb-21 10:29N 34°38' E 135°10'0 0.0
2018-Feb-21 09:59N 34°38' E 135°10'0 0.0
2018-Feb-21 09:29N 34°38' E 135°10'0 0.0
2018-Feb-21 08:59N 34°38' E 135°10'0 0.0
2018-Feb-21 08:29N 34°38' E 135°10'0 0.1
2018-Feb-21 07:59N 34°38' E 135°10'0 0.0
2018-Feb-21 07:29N 34°38' E 135°10'0 0.1
2018-Feb-21 06:59N 34°38' E 135°10'4 7.9
2018-Feb-21 06:30N 34°35' E 135°06'612.1
2018-Feb-21 06:00N 34°37' E 134°59'611.8
2018-Feb-21 05:30N 34°38' E 134°52'4 1.3
2018-Feb-21 02:52N 34°42' E 134°52'2 6.8
2018-Feb-21 02:30N 34°40' E 134°50'612.5
2018-Feb-21 02:00N 34°38' E 134°57'713.7
2018-Feb-21 01:30N 34°36' E 135°05'611.9
2018-Feb-21 01:00N 34°39' E 135°11'1 1.0
2018-Feb-21 00:30N 34°39' E 135°11'0 0.0
2018-Feb-21 00:00N 34°39' E 135°11'0 0.0
2018-Feb-20 23:30N 34°39' E 135°11'0 0.0
2018-Feb-20 23:00N 34°39' E 135°11'1 1.4
2018-Feb-20 22:28N 34°40' E 135°12'0 0.1
2018-Feb-20 21:58N 34°40' E 135°12'0 0.1
2018-Feb-20 21:28N 34°40' E 135°12'0 0.0
2018-Feb-20 20:58N 34°40' E 135°12'0 0.1
2018-Feb-20 20:28N 34°40' E 135°12'0 0.0
2018-Feb-20 19:58N 34°40' E 135°12'0 0.0
2018-Feb-20 19:28N 34°40' E 135°12'0 0.0
2018-Feb-20 18:58N 34°40' E 135°12'0 0.1
2018-Feb-20 18:28N 34°40' E 135°12'0 0.0
2018-Feb-20 17:58N 34°40' E 135°12'0 0.0
2018-Feb-20 17:28N 34°40' E 135°12'0 0.0
2018-Feb-20 16:58N 34°40' E 135°12'0 0.1
2018-Feb-20 16:28N 34°40' E 135°12'0 0.0
2018-Feb-20 15:58N 34°40' E 135°12'0 0.0
2018-Feb-20 15:28N 34°40' E 135°12'0 0.1
2018-Feb-20 14:58N 34°40' E 135°12'3 7.5
2018-Feb-20 14:30N 34°36' E 135°10'611.8
2018-Feb-20 14:00N 34°31' E 135°08'611.9
2018-Feb-20 13:30N 34°26' E 135°04'612.3
2018-Feb-20 13:00N 34°20' E 135°01'612.6
2018-Feb-20 12:30N 34°14' E 134°59'612.2
2018-Feb-20 12:00N 34°08' E 134°57'712.3
2018-Feb-20 11:27N 34°02' E 134°55'712.2
2018-Feb-20 10:51N 33°54' E 134°53'9 0.3
2018-Feb-19 06:23N 34°03' E 134°55'512.6
2018-Feb-19 05:59N 34°08' E 134°56'612.6
2018-Feb-19 05:29N 34°14' E 134°58'612.6
2018-Feb-19 04:59N 34°20' E 134°59'611.9
2018-Feb-19 04:30N 34°26' E 135°01'612.0
2018-Feb-19 04:00N 34°32' E 135°02'5 9.7
2018-Feb-19 03:30N 34°36' E 135°02'510.8
2018-Feb-19 03:00N 34°36' E 134°55'510.9
2018-Feb-19 02:30N 34°40' E 134°50'3 0.7
2018-Feb-18 23:05N 34°42' E 134°52'0 2.6
2018-Feb-18 23:00N 34°42' E 134°52'4 7.7
2018-Feb-18 22:29N 34°40' E 134°48'4 6.7
2018-Feb-18 21:56N 34°38' E 134°51'4 9.4
2018-Feb-18 21:30N 34°37' E 134°56'510.3
2018-Feb-18 21:01N 34°37' E 135°02'611.7
2018-Feb-18 20:31N 34°36' E 135°09'612.1
2018-Feb-18 20:01N 34°34' E 135°17'612.4
2018-Feb-18 19:30N 34°32' E 135°24'1 2.6
2018-Feb-18 19:00N 34°31' E 135°24'0 0.0
2018-Feb-18 18:30N 34°31' E 135°24'0 0.0
2018-Feb-18 18:00N 34°31' E 135°24'0 0.0
2018-Feb-18 17:27N 34°31' E 135°24'0 0.0
2018-Feb-18 17:00N 34°31' E 135°24'0 0.0
2018-Feb-18 16:30N 34°31' E 135°24'0 0.0
2018-Feb-18 16:00N 34°31' E 135°24'0 0.0
2018-Feb-18 15:30N 34°31' E 135°24'0 0.0
2018-Feb-18 15:00N 34°31' E 135°24'0 0.0
2018-Feb-18 14:30N 34°31' E 135°24'0 0.0
2018-Feb-18 14:00N 34°31' E 135°24'0 0.0
2018-Feb-18 13:30N 34°31' E 135°24'0 0.0
2018-Feb-18 13:00N 34°31' E 135°24'0 0.0
2018-Feb-18 12:30N 34°31' E 135°24'0 0.0
2018-Feb-18 12:00N 34°31' E 135°24'0 0.0
2018-Feb-18 11:30N 34°31' E 135°24'0 0.0
2018-Feb-18 10:57N 34°31' E 135°24'0 0.0
2018-Feb-18 10:30N 34°31' E 135°24'0 0.0
2018-Feb-18 10:00N 34°31' E 135°24'0 0.0
2018-Feb-18 09:30N 34°31' E 135°24'0 0.0
2018-Feb-18 09:00N 34°31' E 135°24'0 0.0
2018-Feb-18 08:30N 34°31' E 135°24'0 0.0
2018-Feb-18 08:00N 34°31' E 135°24'0 0.0
2018-Feb-18 07:30N 34°31' E 135°24'0 0.0
2018-Feb-18 07:00N 34°31' E 135°24'0 0.0
2018-Feb-18 06:30N 34°31' E 135°24'0 0.0
2018-Feb-18 06:00N 34°31' E 135°24'0 0.0
2018-Feb-18 05:30N 34°31' E 135°24'0 0.0
2018-Feb-18 05:00N 34°31' E 135°24'0 0.0
2018-Feb-18 04:30N 34°31' E 135°24'0 0.0
2018-Feb-18 04:00N 34°31' E 135°24'0 0.0
2018-Feb-18 03:30N 34°31' E 135°24'0 0.0
2018-Feb-18 03:00N 34°31' E 135°24'0 0.0
2018-Feb-18 02:30N 34°31' E 135°24'0 0.0
2018-Feb-18 02:00N 34°31' E 135°24'0 0.0
2018-Feb-18 01:30N 34°31' E 135°24'0 0.0
2018-Feb-18 00:57N 34°31' E 135°24'0 0.0
2018-Feb-18 00:30N 34°31' E 135°24'0 0.0
2018-Feb-18 00:00N 34°31' E 135°24'0 0.0
2018-Feb-17 23:30N 34°31' E 135°24'0 0.0
2018-Feb-17 23:00N 34°31' E 135°24'0 0.0
2018-Feb-17 22:30N 34°31' E 135°24'0 0.1
2018-Feb-17 22:00N 34°31' E 135°24'4 9.0
2018-Feb-17 21:30N 34°35' E 135°24'3 4.9
2018-Feb-17 20:55N 34°35' E 135°27'0 0.0
2018-Feb-17 20:25N 34°35' E 135°27'0 0.0
2018-Feb-17 19:55N 34°35' E 135°27'0 0.0
2018-Feb-17 19:25N 34°35' E 135°27'0 0.0
2018-Feb-17 18:49N 34°35' E 135°27'0 0.0
2018-Feb-17 18:25N 34°35' E 135°27'0 0.0
2018-Feb-17 17:58N 34°35' E 135°27'0 0.0
2018-Feb-17 17:28N 34°35' E 135°27'0 0.0
2018-Feb-17 16:55N 34°35' E 135°27'0 0.0
2018-Feb-17 16:25N 34°35' E 135°27'0 0.0
2018-Feb-17 15:55N 34°35' E 135°27'0 0.0
2018-Feb-17 15:28N 34°35' E 135°27'0 0.0
2018-Feb-17 14:58N 34°35' E 135°27'0 0.0
2018-Feb-17 14:28N 34°35' E 135°27'0 0.0
2018-Feb-17 13:58N 34°35' E 135°27'0 0.0
2018-Feb-17 13:28N 34°35' E 135°27'0 0.0
2018-Feb-17 12:58N 34°35' E 135°27'0 0.0
2018-Feb-17 12:28N 34°35' E 135°27'0 0.0
2018-Feb-17 11:52N 34°35' E 135°27'0 0.0
2018-Feb-17 11:28N 34°35' E 135°27'2 3.8
2018-Feb-17 11:00N 34°36' E 135°25'5 9.6
2018-Feb-17 10:30N 34°34' E 135°19'611.2
2018-Feb-17 10:00N 34°30' E 135°15'610.9
2018-Feb-17 09:29N 34°26' E 135°11'510.8
2018-Feb-17 09:00N 34°22' E 135°07'510.2
2018-Feb-17 08:30N 34°17' E 135°04'4 8.3
2018-Feb-17 08:00N 34°14' E 135°07'0 0.8
2018-Feb-17 07:28N 34°15' E 135°07'0 0.0
2018-Feb-17 06:49N 34°15' E 135°07'0 0.0
2018-Feb-17 06:28N 34°15' E 135°07'0 0.0
2018-Feb-17 05:58N 34°15' E 135°07'0 0.0
2018-Feb-17 05:22N 34°15' E 135°07'0 0.0
2018-Feb-17 04:58N 34°15' E 135°07'0 0.0
2018-Feb-17 04:28N 34°15' E 135°07'0 0.0
2018-Feb-17 03:58N 34°15' E 135°07'0 0.0
2018-Feb-17 03:28N 34°15' E 135°07'0 0.0
2018-Feb-17 02:58N 34°15' E 135°07'0 0.1
2018-Feb-17 02:28N 34°15' E 135°07'0 0.0
2018-Feb-17 01:58N 34°15' E 135°07'0 0.0
2018-Feb-17 01:28N 34°15' E 135°07'0 0.0
2018-Feb-17 00:55N 34°15' E 135°07'0 0.0
2018-Feb-17 00:28N 34°15' E 135°07'0 0.0
2018-Feb-17 00:01N 34°15' E 135°07'1 1.8
2018-Feb-16 23:30N 34°15' E 135°06'0 0.0
2018-Feb-16 23:00N 34°15' E 135°06'0 0.0
2018-Feb-16 22:30N 34°15' E 135°06'0 0.0
2018-Feb-16 22:00N 34°15' E 135°06'0 0.0
2018-Feb-16 21:30N 34°15' E 135°06'0 0.0
2018-Feb-16 21:00N 34°15' E 135°06'0 0.1
2018-Feb-16 20:30N 34°15' E 135°06'0 0.0
2018-Feb-16 20:00N 34°15' E 135°06'0 0.0
2018-Feb-16 19:30N 34°15' E 135°06'0 0.0
2018-Feb-16 19:00N 34°15' E 135°06'0 0.0
2018-Feb-16 18:30N 34°15' E 135°06'0 0.0
2018-Feb-16 18:00N 34°15' E 135°06'0 0.0
2018-Feb-16 17:27N 34°15' E 135°06'0 0.1
2018-Feb-16 17:00N 34°15' E 135°06'0 0.0
2018-Feb-16 16:24N 34°15' E 135°06'0 0.2
2018-Feb-16 16:00N 34°15' E 135°06'5 9.1
2018-Feb-16 15:30N 34°10' E 135°04'611.6
2018-Feb-16 15:00N 34°05' E 135°03'611.7
2018-Feb-16 14:29N 33°59' E 135°03'85 4.4
2018-Feb-15 18:58N 34°41' E 136°32'0 0.0
2018-Feb-15 10:04N 34°41' E 136°32'0 0.0
2018-Feb-15 08:40N 34°41' E 136°32'0 0.0
2018-Feb-15 08:28N 34°41' E 136°32'0 0.0
2018-Feb-15 04:28N 34°41' E 136°32'0 0.0
2018-Feb-15 02:34N 34°41' E 136°32'0 0.1
2018-Feb-15 02:22N 34°41' E 136°32'0 0.0
2018-Feb-14 23:58N 34°41' E 136°32'11 8.7
2018-Feb-14 22:40N 34°39' E 136°46'100 6.8
2018-Feb-14 08:01N 33°56' E 134°56'2911.8
2018-Feb-14 05:34N 34°17' E 134°32'111.9
2018-Feb-14 05:30N 34°18' E 134°31'9211.9
2018-Feb-13 21:46N 34°03' E 132°42'313.2
2018-Feb-13 21:30N 34°01' E 132°38'5111.6
2018-Feb-13 17:05N 33°48' E 131°38'212.3
2018-Feb-13 16:55N 33°48' E 131°36'512.4
2018-Feb-13 16:30N 33°49' E 131°30'612.5
2018-Feb-13 16:00N 33°51' E 131°23'612.6
2018-Feb-13 15:30N 33°52' E 131°15'713.1
2018-Feb-13 15:00N 33°55' E 131°08'612.7
2018-Feb-13 14:30N 33°58' E 131°02'611.0
2018-Feb-13 14:00N 33°55' E 130°56'4 8.7
2018-Feb-13 13:30N 33°57' E 130°51'611.9
2018-Feb-13 13:00N 33°58' E 130°44'612.2
2018-Feb-13 12:30N 33°57' E 130°37'612.2
2018-Feb-13 12:00N 33°55' E 130°30'612.2
2018-Feb-13 11:30N 33°50' E 130°25'612.1
2018-Feb-13 11:00N 33°46' E 130°20'712.1
2018-Feb-13 10:27N 33°42' E 130°13'  
Track history (hours):
 
Tides and Currents Weather Stations Pressure Air Temp Water Temp Dewpoint Dewpoint Depression Visibility Wind Speed Wind Dir Waves Ship Positions

Asahi Maru No.16

Last reported at 2018-Feb-22 19:08 UTC. Time now 2018-Feb-22 23:02 UTC.
Position N 33°55' E 132°39'.

Length 75 m.

Type: Cargo ship. MMSI: 431001193.

Date/timePositionNaut miles runAvg speedWind from/ knotsBaromVisibWave heightAir tempDewpointWater temp
2018-Feb-22 19:08N 33°55' E 132°39'211.6
2018-Feb-22 19:00N 33°56' E 132°40'10610.4
2018-Feb-22 08:51N 34°32' E 134°41'711.1
2018-Feb-22 08:11N 34°34' E 134°50'210.7
2018-Feb-22 07:58N 34°35' E 134°52'510.2
2018-Feb-22 07:30N 34°37' E 134°57'5 9.8
2018-Feb-22 07:00N 34°36' E 135°03'611.7
2018-Feb-22 06:30N 34°38' E 135°10'2 4.0
2018-Feb-22 06:00N 34°40' E 135°12'0 0.5
2018-Feb-22 05:30N 34°40' E 135°11'0 0.8
2018-Feb-22 04:59N 34°39' E 135°11'0 0.0
2018-Feb-22 04:29N 34°39' E 135°11'0 0.0
2018-Feb-22 03:59N 34°39' E 135°11'0 0.0
2018-Feb-22 03:29N 34°39' E 135°11'0 0.0
2018-Feb-22 02:59N 34°39' E 135°11'0 0.0
2018-Feb-22 02:29N 34°39' E 135°11'0 0.0
2018-Feb-22 01:59N 34°39' E 135°11'0 0.0
2018-Feb-22 01:29N 34°39' E 135°11'0 0.0
2018-Feb-22 00:59N 34°39' E 135°11'0 0.0
2018-Feb-22 00:29N 34°39' E 135°11'0 0.0
2018-Feb-21 23:59N 34°39' E 135°11'0 0.0
2018-Feb-21 23:29N 34°39' E 135°11'0 0.1
2018-Feb-21 22:59N 34°39' E 135°11'2 4.0
2018-Feb-21 22:29N 34°38' E 135°10'0 0.1
2018-Feb-21 21:59N 34°38' E 135°09'0 0.1
2018-Feb-21 21:29N 34°38' E 135°10'0 0.0
2018-Feb-21 20:59N 34°38' E 135°10'0 0.0
2018-Feb-21 20:29N 34°38' E 135°10'0 0.0
2018-Feb-21 19:59N 34°38' E 135°10'0 0.0
2018-Feb-21 19:29N 34°38' E 135°10'0 0.0
2018-Feb-21 18:59N 34°38' E 135°10'0 0.0
2018-Feb-21 18:29N 34°38' E 135°10'0 0.0
2018-Feb-21 17:59N 34°38' E 135°10'0 0.0
2018-Feb-21 17:29N 34°38' E 135°10'0 0.0
2018-Feb-21 16:59N 34°38' E 135°10'0 0.0
2018-Feb-21 16:29N 34°38' E 135°10'0 0.0
2018-Feb-21 15:59N 34°38' E 135°10'0 0.0
2018-Feb-21 15:29N 34°38' E 135°10'0 0.0
2018-Feb-21 14:59N 34°38' E 135°10'0 0.0
2018-Feb-21 14:29N 34°38' E 135°10'0 0.0
2018-Feb-21 13:59N 34°38' E 135°10'0 0.1
2018-Feb-21 13:29N 34°38' E 135°09'0 0.1
2018-Feb-21 12:59N 34°38' E 135°10'0 0.0
2018-Feb-21 12:29N 34°38' E 135°10'0 0.0
2018-Feb-21 11:59N 34°38' E 135°10'0 0.0
2018-Feb-21 11:29N 34°38' E 135°10'0 0.0
2018-Feb-21 10:59N 34°38' E 135°10'0 0.0
2018-Feb-21 10:29N 34°38' E 135°10'0 0.0
2018-Feb-21 09:59N 34°38' E 135°10'0 0.0
2018-Feb-21 09:29N 34°38' E 135°10'0 0.0
2018-Feb-21 08:59N 34°38' E 135°10'0 0.0
2018-Feb-21 08:29N 34°38' E 135°10'0 0.1
2018-Feb-21 07:59N 34°38' E 135°10'0 0.0
2018-Feb-21 07:29N 34°38' E 135°10'0 0.1
2018-Feb-21 06:59N 34°38' E 135°10'4 7.9
2018-Feb-21 06:30N 34°35' E 135°06'612.1
2018-Feb-21 06:00N 34°37' E 134°59'611.8
2018-Feb-21 05:30N 34°38' E 134°52'4 1.3
2018-Feb-21 02:52N 34°42' E 134°52'2 6.8
2018-Feb-21 02:30N 34°40' E 134°50'612.5
2018-Feb-21 02:00N 34°38' E 134°57'713.7
2018-Feb-21 01:30N 34°36' E 135°05'611.9
2018-Feb-21 01:00N 34°39' E 135°11'1 1.0
2018-Feb-21 00:30N 34°39' E 135°11'0 0.0
2018-Feb-21 00:00N 34°39' E 135°11'0 0.0
2018-Feb-20 23:30N 34°39' E 135°11'0 0.0
2018-Feb-20 23:00N 34°39' E 135°11'1 1.4
2018-Feb-20 22:28N 34°40' E 135°12'0 0.1
2018-Feb-20 21:58N 34°40' E 135°12'0 0.1
2018-Feb-20 21:28N 34°40' E 135°12'0 0.0
2018-Feb-20 20:58N 34°40' E 135°12'0 0.1
2018-Feb-20 20:28N 34°40' E 135°12'0 0.0
2018-Feb-20 19:58N 34°40' E 135°12'0 0.0
2018-Feb-20 19:28N 34°40' E 135°12'0 0.0
2018-Feb-20 18:58N 34°40' E 135°12'0 0.1
2018-Feb-20 18:28N 34°40' E 135°12'0 0.0
2018-Feb-20 17:58N 34°40' E 135°12'0 0.0
2018-Feb-20 17:28N 34°40' E 135°12'0 0.0
2018-Feb-20 16:58N 34°40' E 135°12'0 0.1
2018-Feb-20 16:28N 34°40' E 135°12'0 0.0
2018-Feb-20 15:58N 34°40' E 135°12'0 0.0
2018-Feb-20 15:28N 34°40' E 135°12'0 0.1
2018-Feb-20 14:58N 34°40' E 135°12'3 7.5
2018-Feb-20 14:30N 34°36' E 135°10'611.8
2018-Feb-20 14:00N 34°31' E 135°08'611.9
2018-Feb-20 13:30N 34°26' E 135°04'612.3
2018-Feb-20 13:00N 34°20' E 135°01'612.6
2018-Feb-20 12:30N 34°14' E 134°59'612.2
2018-Feb-20 12:00N 34°08' E 134°57'712.3
2018-Feb-20 11:27N 34°02' E 134°55'712.2
2018-Feb-20 10:51N 33°54' E 134°53'9 0.3
2018-Feb-19 06:23N 34°03' E 134°55'512.6
2018-Feb-19 05:59N 34°08' E 134°56'612.6
2018-Feb-19 05:29N 34°14' E 134°58'612.6
2018-Feb-19 04:59N 34°20' E 134°59'611.9
2018-Feb-19 04:30N 34°26' E 135°01'612.0
2018-Feb-19 04:00N 34°32' E 135°02'5 9.7
2018-Feb-19 03:30N 34°36' E 135°02'510.8
2018-Feb-19 03:00N 34°36' E 134°55'510.9
2018-Feb-19 02:30N 34°40' E 134°50'3 0.7
2018-Feb-18 23:05N 34°42' E 134°52'0 2.6
2018-Feb-18 23:00N 34°42' E 134°52'4 7.7
2018-Feb-18 22:29N 34°40' E 134°48'4 6.7
2018-Feb-18 21:56N 34°38' E 134°51'4 9.4
2018-Feb-18 21:30N 34°37' E 134°56'510.3
2018-Feb-18 21:01N 34°37' E 135°02'611.7
2018-Feb-18 20:31N 34°36' E 135°09'612.1
2018-Feb-18 20:01N 34°34' E 135°17'612.4
2018-Feb-18 19:30N 34°32' E 135°24'1 2.6
2018-Feb-18 19:00N 34°31' E 135°24'0 0.0
2018-Feb-18 18:30N 34°31' E 135°24'0 0.0
2018-Feb-18 18:00N 34°31' E 135°24'0 0.0
2018-Feb-18 17:27N 34°31' E 135°24'0 0.0
2018-Feb-18 17:00N 34°31' E 135°24'0 0.0
2018-Feb-18 16:30N 34°31' E 135°24'0 0.0
2018-Feb-18 16:00N 34°31' E 135°24'0 0.0
2018-Feb-18 15:30N 34°31' E 135°24'0 0.0
2018-Feb-18 15:00N 34°31' E 135°24'0 0.0
2018-Feb-18 14:30N 34°31' E 135°24'0 0.0
2018-Feb-18 14:00N 34°31' E 135°24'0 0.0
2018-Feb-18 13:30N 34°31' E 135°24'0 0.0
2018-Feb-18 13:00N 34°31' E 135°24'0 0.0
2018-Feb-18 12:30N 34°31' E 135°24'0 0.0
2018-Feb-18 12:00N 34°31' E 135°24'0 0.0
2018-Feb-18 11:30N 34°31' E 135°24'0 0.0
2018-Feb-18 10:57N 34°31' E 135°24'0 0.0
2018-Feb-18 10:30N 34°31' E 135°24'0 0.0
2018-Feb-18 10:00N 34°31' E 135°24'0 0.0
2018-Feb-18 09:30N 34°31' E 135°24'0 0.0
2018-Feb-18 09:00N 34°31' E 135°24'0 0.0
2018-Feb-18 08:30N 34°31' E 135°24'0 0.0
2018-Feb-18 08:00N 34°31' E 135°24'0 0.0
2018-Feb-18 07:30N 34°31' E 135°24'0 0.0
2018-Feb-18 07:00N 34°31' E 135°24'0 0.0
2018-Feb-18 06:30N 34°31' E 135°24'0 0.0
2018-Feb-18 06:00N 34°31' E 135°24'0 0.0
2018-Feb-18 05:30N 34°31' E 135°24'0 0.0
2018-Feb-18 05:00N 34°31' E 135°24'0 0.0
2018-Feb-18 04:30N 34°31' E 135°24'0 0.0
2018-Feb-18 04:00N 34°31' E 135°24'0 0.0
2018-Feb-18 03:30N 34°31' E 135°24'0 0.0
2018-Feb-18 03:00N 34°31' E 135°24'0 0.0
2018-Feb-18 02:30N 34°31' E 135°24'0 0.0
2018-Feb-18 02:00N 34°31' E 135°24'0 0.0
2018-Feb-18 01:30N 34°31' E 135°24'0 0.0
2018-Feb-18 00:57N 34°31' E 135°24'0 0.0
2018-Feb-18 00:30N 34°31' E 135°24'0 0.0
2018-Feb-18 00:00N 34°31' E 135°24'0 0.0
2018-Feb-17 23:30N 34°31' E 135°24'0 0.0
2018-Feb-17 23:00N 34°31' E 135°24'0 0.0
2018-Feb-17 22:30N 34°31' E 135°24'0 0.1
2018-Feb-17 22:00N 34°31' E 135°24'4 9.0
2018-Feb-17 21:30N 34°35' E 135°24'3 4.9
2018-Feb-17 20:55N 34°35' E 135°27'0 0.0
2018-Feb-17 20:25N 34°35' E 135°27'0 0.0
2018-Feb-17 19:55N 34°35' E 135°27'0 0.0
2018-Feb-17 19:25N 34°35' E 135°27'0 0.0
2018-Feb-17 18:49N 34°35' E 135°27'0 0.0
2018-Feb-17 18:25N 34°35' E 135°27'0 0.0
2018-Feb-17 17:58N 34°35' E 135°27'0 0.0
2018-Feb-17 17:28N 34°35' E 135°27'0 0.0
2018-Feb-17 16:55N 34°35' E 135°27'0 0.0
2018-Feb-17 16:25N 34°35' E 135°27'0 0.0
2018-Feb-17 15:55N 34°35' E 135°27'0 0.0
2018-Feb-17 15:28N 34°35' E 135°27'0 0.0
2018-Feb-17 14:58N 34°35' E 135°27'0 0.0
2018-Feb-17 14:28N 34°35' E 135°27'0 0.0
2018-Feb-17 13:58N 34°35' E 135°27'0 0.0
2018-Feb-17 13:28N 34°35' E 135°27'0 0.0
2018-Feb-17 12:58N 34°35' E 135°27'0 0.0
2018-Feb-17 12:28N 34°35' E 135°27'0 0.0
2018-Feb-17 11:52N 34°35' E 135°27'0 0.0
2018-Feb-17 11:28N 34°35' E 135°27'2 3.8
2018-Feb-17 11:00N 34°36' E 135°25'5 9.6
2018-Feb-17 10:30N 34°34' E 135°19'611.2
2018-Feb-17 10:00N 34°30' E 135°15'610.9
2018-Feb-17 09:29N 34°26' E 135°11'510.8
2018-Feb-17 09:00N 34°22' E 135°07'510.2
2018-Feb-17 08:30N 34°17' E 135°04'4 8.3
2018-Feb-17 08:00N 34°14' E 135°07'0 0.8
2018-Feb-17 07:28N 34°15' E 135°07'0 0.0
2018-Feb-17 06:49N 34°15' E 135°07'0 0.0
2018-Feb-17 06:28N 34°15' E 135°07'0 0.0
2018-Feb-17 05:58N 34°15' E 135°07'0 0.0
2018-Feb-17 05:22N 34°15' E 135°07'0 0.0
2018-Feb-17 04:58N 34°15' E 135°07'0 0.0
2018-Feb-17 04:28N 34°15' E 135°07'0 0.0
2018-Feb-17 03:58N 34°15' E 135°07'0 0.0
2018-Feb-17 03:28N 34°15' E 135°07'0 0.0
2018-Feb-17 02:58N 34°15' E 135°07'0 0.1
2018-Feb-17 02:28N 34°15' E 135°07'0 0.0
2018-Feb-17 01:58N 34°15' E 135°07'0 0.0
2018-Feb-17 01:28N 34°15' E 135°07'0 0.0
2018-Feb-17 00:55N 34°15' E 135°07'0 0.0
2018-Feb-17 00:28N 34°15' E 135°07'0 0.0
2018-Feb-17 00:01N 34°15' E 135°07'1 1.8
2018-Feb-16 23:30N 34°15' E 135°06'0 0.0
2018-Feb-16 23:00N 34°15' E 135°06'0 0.0
2018-Feb-16 22:30N 34°15' E 135°06'0 0.0
2018-Feb-16 22:00N 34°15' E 135°06'0 0.0
2018-Feb-16 21:30N 34°15' E 135°06'0 0.0
2018-Feb-16 21:00N 34°15' E 135°06'0 0.1
2018-Feb-16 20:30N 34°15' E 135°06'0 0.0
2018-Feb-16 20:00N 34°15' E 135°06'0 0.0
2018-Feb-16 19:30N 34°15' E 135°06'0 0.0
2018-Feb-16 19:00N 34°15' E 135°06'0 0.0
2018-Feb-16 18:30N 34°15' E 135°06'0 0.0
2018-Feb-16 18:00N 34°15' E 135°06'0 0.0
2018-Feb-16 17:27N 34°15' E 135°06'0 0.1
2018-Feb-16 17:00N 34°15' E 135°06'0 0.0
2018-Feb-16 16:24N 34°15' E 135°06'0 0.2
2018-Feb-16 16:00N 34°15' E 135°06'5 9.1
2018-Feb-16 15:30N 34°10' E 135°04'611.6
2018-Feb-16 15:00N 34°05' E 135°03'611.7
2018-Feb-16 14:29N 33°59' E 135°03'85 4.4
2018-Feb-15 18:58N 34°41' E 136°32'0 0.0
2018-Feb-15 10:04N 34°41' E 136°32'0 0.0
2018-Feb-15 08:40N 34°41' E 136°32'0 0.0
2018-Feb-15 08:28N 34°41' E 136°32'0 0.0
2018-Feb-15 04:28N 34°41' E 136°32'0 0.0
2018-Feb-15 02:34N 34°41' E 136°32'0 0.1
2018-Feb-15 02:22N 34°41' E 136°32'0 0.0
2018-Feb-14 23:58N 34°41' E 136°32'11 8.7
2018-Feb-14 22:40N 34°39' E 136°46'100 6.8
2018-Feb-14 08:01N 33°56' E 134°56'2911.8
2018-Feb-14 05:34N 34°17' E 134°32'111.9
2018-Feb-14 05:30N 34°18' E 134°31'9211.9
2018-Feb-13 21:46N 34°03' E 132°42'313.2
2018-Feb-13 21:30N 34°01' E 132°38'5111.6
2018-Feb-13 17:05N 33°48' E 131°38'212.3
2018-Feb-13 16:55N 33°48' E 131°36'512.4
2018-Feb-13 16:30N 33°49' E 131°30'612.5
2018-Feb-13 16:00N 33°51' E 131°23'612.6
2018-Feb-13 15:30N 33°52' E 131°15'713.1
2018-Feb-13 15:00N 33°55' E 131°08'612.7
2018-Feb-13 14:30N 33°58' E 131°02'611.0
2018-Feb-13 14:00N 33°55' E 130°56'4 8.7
2018-Feb-13 13:30N 33°57' E 130°51'611.9
2018-Feb-13 13:00N 33°58' E 130°44'612.2
2018-Feb-13 12:30N 33°57' E 130°37'612.2
2018-Feb-13 12:00N 33°55' E 130°30'612.2
2018-Feb-13 11:30N 33°50' E 130°25'612.1
2018-Feb-13 11:00N 33°46' E 130°20'712.1
2018-Feb-13 10:27N 33°42' E 130°13'  

Dump ship's entire track history